Time;durP1;ratioP1;P1;durP2;ratioP2;P2;SDS_P1;SDS_P2;PMS_P1;PMS_P2;Temp;Humidity;BMP_temperature;BMP_pressure;BME280_temperature;BME280_humidity;BME280_pressure;Samples;Min_cycle;Max_cycle;Signal;HPM_P1;HPM_P2
2023/06/11 02:25:36;;;;;;;5.30;4.45;;;;;;;18.83;62.23;96580.72;4997410;28;20062;-79
2023/06/11 02:28:15;;;;;;;4.57;4.18;;;;;;;18.84;62.58;96587.59;4983149;28;20106;-79
2023/06/11 02:30:49;;;;;;;5.10;4.70;;;;;;;18.86;62.18;96580.22;4982820;28;20051;-78
2023/06/11 02:33:22;;;;;;;5.68;5.18;;;;;;;18.86;62.09;96585.50;4998913;28;20046;-79
2023/06/11 02:38:44;;;;;;;5.75;5.15;;;;;;;18.79;62.43;96589.34;5006265;23;20046;-77
2023/06/11 02:41:13;;;;;;;6.95;5.05;;;;;;;18.72;62.30;96592.09;4995182;28;20086;-76
2023/06/11 02:43:40;;;;;;;4.95;4.53;;;;;;;18.69;62.97;96593.38;4994566;28;20477;-76
2023/06/11 02:46:08;;;;;;;5.75;4.40;;;;;;;18.71;63.20;96598.41;4994477;28;20079;-76
2023/06/11 02:48:36;;;;;;;5.45;4.95;;;;;;;18.68;62.53;96594.38;4994665;28;20085;-76
2023/06/11 02:51:03;;;;;;;6.00;5.40;;;;;;;18.62;62.19;96597.94;4998792;28;20190;-77
2023/06/11 02:53:31;;;;;;;6.28;5.65;;;;;;;18.52;62.19;96595.91;5009595;28;20105;-76
2023/06/11 02:55:58;;;;;;;6.45;5.20;;;;;;;18.46;62.43;96590.75;5005267;28;20046;-76
2023/06/11 02:58:27;;;;;;;5.38;4.97;;;;;;;18.40;62.70;96597.75;4995017;28;20105;-76
2023/06/11 03:00:55;;;;;;;4.93;4.40;;;;;;;18.36;63.63;96598.44;4994515;28;20089;-76
2023/06/11 03:03:23;;;;;;;5.28;4.60;;;;;;;18.35;63.59;96595.00;4994279;28;20054;-77
2023/06/11 03:05:50;;;;;;;5.63;5.13;;;;;;;18.37;63.29;96597.44;4994236;28;20058;-76
2023/06/11 03:08:18;;;;;;;5.18;3.95;;;;;;;18.41;63.29;96604.66;4994211;28;20042;-77
2023/06/11 03:10:46;;;;;;;6.65;5.82;;;;;;;18.37;62.60;96606.16;4994319;28;20137;-76
2023/06/11 03:13:13;;;;;;;6.03;5.43;;;;;;;18.29;62.79;96614.41;4994520;28;20059;-76
2023/06/11 03:15:42;;;;;;;6.10;5.50;;;;;;;18.20;63.00;96608.69;4993977;28;20113;-77
2023/06/11 03:18:10;;;;;;;5.55;5.05;;;;;;;18.11;63.22;96605.56;4994272;28;20052;-76
2023/06/11 03:20:37;;;;;;;7.45;6.18;;;;;;;18.05;63.27;96609.13;4994362;28;20153;-76
2023/06/11 03:23:06;;;;;;;6.20;5.53;;;;;;;17.97;63.78;96614.72;4993934;28;20438;-76
2023/06/11 03:25:33;;;;;;;6.07;5.47;;;;;;;17.97;63.90;96614.72;4993622;28;20112;-76
2023/06/11 03:28:02;;;;;;;6.30;5.13;;;;;;;17.99;63.82;96611.88;4993858;28;20050;-76
2023/06/11 03:30:30;;;;;;;4.85;4.45;;;;;;;18.06;64.29;96617.84;4994113;28;20096;-76
2023/06/11 03:32:58;;;;;;;5.82;5.28;;;;;;;18.07;63.80;96608.91;4994010;28;20054;-76
2023/06/11 03:35:26;;;;;;;5.68;5.18;;;;;;;18.06;63.66;96608.09;4993847;28;20092;-76
2023/06/11 03:37:54;;;;;;;6.95;6.25;;;;;;;18.01;63.62;96613.25;4993337;28;20085;-77
2023/06/11 03:40:21;;;;;;;6.07;5.50;;;;;;;17.98;64.45;96608.44;4993948;28;20571;-76
2023/06/11 03:42:49;;;;;;;4.90;4.50;;;;;;;18.03;64.40;96613.81;4993871;28;20474;-76
2023/06/11 03:45:16;;;;;;;7.28;6.00;;;;;;;18.06;63.90;96612.56;4993633;28;20415;-76
2023/06/11 03:47:44;;;;;;;5.05;3.95;;;;;;;18.09;64.78;96620.84;5002587;28;20043;-76
2023/06/11 03:50:13;;;;;;;6.18;5.03;;;;;;;18.17;64.02;96616.25;5013479;28;20054;-77
2023/06/11 03:52:40;;;;;;;5.28;4.78;;;;;;;18.18;63.83;96615.22;5012310;28;20046;-77
2023/06/11 03:55:09;;;;;;;5.97;5.47;;;;;;;18.17;63.89;96618.88;5006528;28;20101;-77
2023/06/11 03:57:37;;;;;;;7.47;5.88;;;;;;;18.14;64.08;96608.78;4995766;28;20073;-77
2023/06/11 04:00:07;;;;;;;6.60;6.00;;;;;;;18.09;64.19;96620.84;4994726;28;20100;-76
2023/06/11 04:02:35;;;;;;;6.05;5.55;;;;;;;18.00;64.63;96613.50;4993763;28;20046;-76
2023/06/11 04:05:04;;;;;;;8.32;6.38;;;;;;;17.91;64.76;96615.66;4993489;28;20081;-77
2023/06/11 04:07:33;;;;;;;6.00;5.50;;;;;;;17.84;65.34;96615.78;4993777;28;20104;-76
2023/06/11 04:10:01;;;;;;;6.30;5.70;;;;;;;17.83;65.37;96624.72;4993719;28;20093;-76
2023/06/11 04:12:28;;;;;;;6.30;5.70;;;;;;;17.83;65.42;96618.63;4993560;28;20058;-77
2023/06/11 04:14:56;;;;;;;6.07;5.47;;;;;;;17.87;65.44;96625.06;4992728;28;20458;-76
2023/06/11 04:17:23;;;;;;;5.93;5.43;;;;;;;17.89;65.17;96625.66;4993526;28;20058;-76
2023/06/11 04:19:51;;;;;;;6.40;5.78;;;;;;;17.88;65.18;96626.66;4993386;28;20050;-76
2023/06/11 04:22:19;;;;;;;6.72;6.13;;;;;;;17.85;65.27;96627.94;4993625;28;20056;-76
2023/06/11 04:24:48;;;;;;;6.60;6.00;;;;;;;17.83;65.46;96634.47;4993133;28;20473;-77
2023/06/11 04:27:15;;;;;;;6.80;6.15;;;;;;;17.80;65.35;96634.88;4992892;28;20061;-76
2023/06/11 04:29:44;;;;;;;6.65;5.78;;;;;;;17.80;65.63;96640.16;4993186;28;20553;-76
2023/06/11 04:32:16;;;;;;;6.40;5.80;;;;;;;17.77;65.71;96632.69;4992964;28;20461;-76
2023/06/11 04:34:48;;;;;;;6.07;5.47;;;;;;;17.76;65.74;96636.38;4993157;28;20510;-76
2023/06/11 04:37:16;;;;;;;5.70;5.20;;;;;;;17.80;65.73;96634.88;4992976;28;20081;-77
2023/06/11 04:39:44;;;;;;;6.25;5.75;;;;;;;17.84;65.73;96636.88;4992761;28;20157;-76
2023/06/11 04:42:14;;;;;;;6.32;5.78;;;;;;;17.87;65.74;96635.63;4992783;28;20493;-77
2023/06/11 04:44:42;;;;;;;6.43;5.72;;;;;;;17.90;65.68;96635.16;4992834;28;20062;-77
2023/06/11 04:47:10;;;;;;;6.60;6.00;;;;;;;17.94;65.80;96635.53;4992793;28;20074;-76
2023/06/11 04:49:40;;;;;;;7.13;6.43;;;;;;;17.96;65.54;96633.47;4992890;28;20570;-77
2023/06/11 04:52:08;;;;;;;5.82;5.22;;;;;;;18.00;65.89;96627.50;4992997;28;20058;-77
2023/06/11 04:54:36;;;;;;;6.75;6.07;;;;;;;18.06;65.46;96634.50;4992581;28;20577;-76
2023/06/11 04:57:04;;;;;;;7.88;5.85;;;;;;;18.07;65.44;96641.38;4992478;28;20046;-76
2023/06/11 04:59:33;;;;;;;7.05;6.43;;;;;;;18.07;65.55;96636.09;4992768;28;20430;-76
2023/06/11 05:02:01;;;;;;;8.68;6.22;;;;;;;18.06;65.89;96628.41;4992994;28;20124;-77
2023/06/11 05:04:28;;;;;;;6.88;6.18;;;;;;;18.07;65.86;96632.66;4992603;28;20054;-76
2023/06/11 05:06:57;;;;;;;6.32;5.72;;;;;;;18.07;65.99;96630.81;4992608;28;20132;-77
2023/06/11 05:09:25;;;;;;;7.00;6.30;;;;;;;18.09;66.04;96631.41;4992763;28;20396;-76
2023/06/11 05:11:53;;;;;;;6.47;5.85;;;;;;;18.11;65.77;96626.69;4992446;28;20495;-76
2023/06/11 05:14:20;;;;;;;6.70;6.03;;;;;;;18.14;65.79;96625.44;4992608;28;20061;-76
2023/06/11 05:16:50;;;;;;;6.50;5.90;;;;;;;18.18;65.95;96626.59;4992568;28;20050;-76
2023/06/11 05:19:18;;;;;;;5.90;5.40;;;;;;;18.24;65.18;96625.66;4992478;28;20054;-76
2023/06/11 05:21:46;;;;;;;7.40;6.47;;;;;;;18.31;64.82;96620.28;4992345;28;20051;-76
2023/06/11 05:24:19;;;;;;;5.97;5.38;;;;;;;18.38;64.52;96625.44;4992597;28;20058;-76
2023/06/11 05:26:48;;;;;;;5.68;5.18;;;;;;;18.44;64.46;96629.81;4995289;28;20046;-77
2023/06/11 05:29:15;;;;;;;5.88;5.32;;;;;;;18.52;64.44;96634.75;4996409;28;20481;-77
2023/06/11 05:31:43;;;;;;;5.88;5.35;;;;;;;18.58;64.10;96630.34;4996250;28;20089;-77
2023/06/11 05:34:12;;;;;;;5.18;4.68;;;;;;;18.64;63.42;96632.88;4995915;28;20055;-77
2023/06/11 05:36:40;;;;;;;5.68;5.18;;;;;;;18.70;63.05;96629.31;4995531;28;20116;-77
2023/06/11 05:39:07;;;;;;;6.63;5.60;;;;;;;18.76;62.77;96632.88;4995721;28;20552;-76
2023/06/11 05:41:35;;;;;;;5.97;5.38;;;;;;;18.81;62.30;96640.91;4995792;28;20097;-76
2023/06/11 05:44:03;;;;;;;5.65;5.13;;;;;;;18.85;62.05;96634.13;4995838;28;20084;-77
2023/06/11 05:46:30;;;;;;;5.70;5.20;;;;;;;18.90;61.71;96644.81;4995799;28;20486;-77
2023/06/11 05:48:58;;;;;;;5.50;4.80;;;;;;;18.94;60.96;96639.88;5003224;28;20050;-76
2023/06/11 05:51:27;;;;;;;9.00;4.97;;;;;;;19.00;60.41;96638.09;5011454;28;20050;-76
2023/06/11 05:53:55;;;;;;;6.13;5.43;;;;;;;19.05;60.25;96648.81;5004307;28;20058;-77
2023/06/11 05:56:23;;;;;;;5.25;4.85;;;;;;;19.10;60.30;96640.97;4996537;28;20050;-76
2023/06/11 05:58:50;;;;;;;5.80;5.20;;;;;;;19.16;60.05;96650.59;4996167;28;20467;-76
2023/06/11 06:01:18;;;;;;;5.82;5.00;;;;;;;19.22;59.68;96647.03;4995768;28;20104;-76
2023/06/11 06:03:45;;;;;;;5.57;4.82;;;;;;;19.29;59.06;96644.25;4995595;28;20054;-76
2023/06/11 06:06:13;;;;;;;5.20;4.75;;;;;;;19.34;58.60;96653.06;4995961;28;20047;-76
2023/06/11 06:08:42;;;;;;;8.65;5.13;;;;;;;19.39;58.36;96652.34;4995621;28;20052;-76
2023/06/11 06:11:12;;;;;;;5.40;4.90;;;;;;;19.42;57.87;96651.88;4995881;28;20422;-76
2023/06/11 06:13:40;;;;;;;6.30;5.00;;;;;;;19.46;57.82;96654.84;4995546;28;20046;-76
2023/06/11 06:16:08;;;;;;;8.07;5.53;;;;;;;19.50;57.56;96659.44;4995505;28;20077;-76
2023/06/11 06:18:37;;;;;;;6.20;4.88;;;;;;;19.55;57.23;96661.38;4995523;28;20058;-76
2023/06/11 06:21:04;;;;;;;6.30;5.00;;;;;;;19.60;56.98;96658.03;4995686;28;20108;-77
2023/06/11 06:23:32;;;;;;;5.40;4.90;;;;;;;19.65;56.53;96666.03;4996074;28;20054;-77
2023/06/11 06:26:03;;;;;;;8.43;5.38;;;;;;;19.67;56.08;96670.06;4995630;28;20076;-76
2023/06/11 06:28:32;;;;;;;5.85;5.35;;;;;;;19.70;55.89;96664.34;4995386;28;20050;-76
2023/06/11 06:30:59;;;;;;;6.00;4.97;;;;;;;19.75;55.84;96667.06;4995006;28;20058;-77
2023/06/11 06:33:30;;;;;;;5.75;5.20;;;;;;;19.81;55.67;96664.50;4995231;28;20097;-77
2023/06/11 06:35:57;;;;;;;5.35;4.95;;;;;;;19.87;55.43;96674.13;4995023;28;20109;-77
2023/06/11 06:38:25;;;;;;;6.18;5.45;;;;;;;19.93;55.43;96673.19;4994378;28;20128;-77
2023/06/11 06:40:53;;;;;;;6.18;5.60;;;;;;;19.99;54.91;96672.22;4995058;28;20046;-76
2023/06/11 06:43:21;;;;;;;5.57;5.07;;;;;;;20.08;54.70;96669.97;4994662;28;20078;-76
2023/06/11 06:45:49;;;;;;;5.50;4.57;;;;;;;20.14;54.57;96674.31;4994791;28;20085;-76
2023/06/11 06:48:17;;;;;;;6.40;5.05;;;;;;;20.20;53.70;96675.19;4994739;28;20050;-76
2023/06/11 06:50:45;;;;;;;4.85;4.38;;;;;;;20.25;53.39;96691.97;4994895;28;20075;-77
2023/06/11 06:53:14;;;;;;;5.00;4.55;;;;;;;20.29;53.43;96676.38;4994884;28;20078;-76
2023/06/11 06:55:41;;;;;;;4.80;4.40;;;;;;;20.33;53.16;96680.16;4994560;28;20128;-76
2023/06/11 06:58:09;;;;;;;5.07;4.68;;;;;;;20.38;52.87;96685.56;4994704;28;20050;-76
2023/06/11 07:00:38;;;;;;;4.90;4.47;;;;;;;20.43;52.55;96688.28;4994592;28;20082;-76
2023/06/11 07:03:05;;;;;;;7.97;4.80;;;;;;;20.49;52.24;96686.50;4994501;28;20054;-76
2023/06/11 07:05:33;;;;;;;5.72;4.32;;;;;;;20.56;52.02;96676.53;4994505;28;20050;-76
2023/06/11 07:08:01;;;;;;;7.35;5.00;;;;;;;20.64;51.78;96688.59;4994207;28;20054;-76
2023/06/11 07:10:30;;;;;;;4.90;4.10;;;;;;;20.73;51.77;96687.16;4994234;28;20046;-76
2023/06/11 07:12:57;;;;;;;5.10;4.60;;;;;;;20.83;51.12;96687.25;4994495;28;20085;-76
2023/06/11 07:15:27;;;;;;;4.78;4.38;;;;;;;20.91;50.57;96692.16;4994280;28;20054;-76
2023/06/11 07:17:56;;;;;;;6.30;5.03;;;;;;;20.99;50.35;96686.44;4994567;28;20093;-77
2023/06/11 07:20:23;;;;;;;5.38;4.88;;;;;;;21.08;49.90;96684.16;4994147;28;20442;-76
2023/06/11 07:22:51;;;;;;;5.30;4.65;;;;;;;21.17;50.17;96687.19;4994054;28;20473;-76
2023/06/11 07:25:19;;;;;;;6.10;5.20;;;;;;;21.27;49.68;96683.84;4994162;28;20089;-76
2023/06/11 07:27:46;;;;;;;11.30;4.93;;;;;;;21.34;49.34;96679.94;4994174;28;20137;-76
2023/06/11 07:30:14;;;;;;;5.10;4.60;;;;;;;21.46;48.84;96692.31;4994166;28;20105;-77
2023/06/11 07:32:42;;;;;;;6.78;5.20;;;;;;;21.56;48.95;96684.47;4993735;28;20054;-78
2023/06/11 07:35:11;;;;;;;6.10;5.50;;;;;;;21.64;47.85;96689.31;4993623;28;20050;-77
2023/06/11 07:37:39;;;;;;;7.68;4.95;;;;;;;21.71;47.42;96692.59;4993460;28;20503;-77
2023/06/11 07:40:07;;;;;;;6.75;4.78;;;;;;;21.78;47.61;96690.53;4993723;28;20530;-76
2023/06/11 07:42:35;;;;;;;5.25;4.75;;;;;;;21.84;46.98;96680.72;4993898;28;20050;-76
2023/06/11 07:45:03;;;;;;;7.43;5.15;;;;;;;21.90;46.77;96689.56;4994012;28;20104;-76
2023/06/11 07:47:30;;;;;;;8.18;5.35;;;;;;;21.96;45.97;96683.25;4993668;28;20065;-76
2023/06/11 07:49:58;;;;;;;5.05;4.63;;;;;;;22.01;45.66;96689.38;4993603;28;20050;-76
2023/06/11 07:52:27;;;;;;;6.60;5.10;;;;;;;22.05;45.58;96678.28;4994544;28;20070;-76
2023/06/11 07:54:55;;;;;;;9.52;4.63;;;;;;;22.10;45.67;96683.63;4994333;28;20100;-76
2023/06/11 07:57:23;;;;;;;6.80;5.00;;;;;;;22.17;45.31;96679.72;4993719;28;20066;-76
2023/06/11 07:59:50;;;;;;;4.75;4.35;;;;;;;22.25;45.26;96678.47;4993640;28;20082;-76
2023/06/11 08:02:18;;;;;;;6.80;5.22;;;;;;;22.37;45.38;96683.59;4993382;28;20054;-76
2023/06/11 08:04:46;;;;;;;7.55;4.95;;;;;;;22.47;44.92;96678.34;4993341;28;20054;-76
2023/06/11 08:07:14;;;;;;;7.25;4.68;;;;;;;22.58;45.20;96677.34;4993307;28;20521;-76
2023/06/11 08:09:43;;;;;;;5.53;4.93;;;;;;;22.72;45.01;96685.69;4993374;28;20061;-76
2023/06/11 08:12:11;;;;;;;4.90;4.25;;;;;;;22.83;44.00;96675.91;4993494;28;20089;-76
2023/06/11 08:14:39;;;;;;;5.38;4.78;;;;;;;22.88;43.22;96686.56;4993283;28;20085;-76
2023/06/11 08:17:08;;;;;;;5.13;4.53;;;;;;;22.93;43.17;96681.25;4992977;28;20096;-76
2023/06/11 08:19:36;;;;;;;9.27;4.97;;;;;;;23.00;43.00;96684.53;4992868;28;20520;-76
2023/06/11 08:22:05;;;;;;;5.85;4.68;;;;;;;23.09;42.93;96686.69;4993594;28;20064;-77
2023/06/11 08:24:32;;;;;;;4.93;4.38;;;;;;;23.18;42.24;96677.97;4993391;28;20046;-77
2023/06/11 08:27:02;;;;;;;5.25;4.75;;;;;;;23.28;41.93;96685.16;4992972;28;20046;-77
2023/06/11 08:29:29;;;;;;;6.32;4.57;;;;;;;23.38;41.53;96682.56;5005895;28;20545;-76
2023/06/11 08:31:57;;;;;;;4.75;4.25;;;;;;;23.49;40.97;96682.59;5014976;28;20080;-77
2023/06/11 08:34:25;;;;;;;5.50;4.22;;;;;;;23.53;39.71;96679.13;5015667;28;20065;-76
2023/06/11 08:36:52;;;;;;;6.15;4.72;;;;;;;23.58;39.50;96686.34;5003499;28;20062;-77
2023/06/11 08:39:20;;;;;;;6.60;4.75;;;;;;;23.59;39.10;96682.59;4995277;28;20092;-77
2023/06/11 08:41:48;;;;;;;4.88;4.47;;;;;;;23.62;39.66;96687.41;4993993;28;20078;-78
2023/06/11 08:44:17;;;;;;;5.55;4.63;;;;;;;23.67;39.05;96675.97;4993188;28;20479;-78
2023/06/11 08:46:45;;;;;;;5.22;4.25;;;;;;;23.74;38.89;96677.31;4993694;28;20084;-77
2023/06/11 08:49:21;;;;;;;6.03;4.50;;;;;;;23.80;38.49;96686.13;4993855;28;20053;-77
2023/06/11 08:51:49;;;;;;;5.15;4.60;;;;;;;23.84;38.79;96679.22;4993366;28;20050;-78
2023/06/11 08:54:18;;;;;;;6.97;4.47;;;;;;;23.90;38.82;96682.69;4993131;28;20054;-78
2023/06/11 08:56:45;;;;;;;9.05;6.30;;;;;;;23.93;39.02;96682.97;4992296;28;20050;-77
2023/06/11 08:59:13;;;;;;;6.38;5.22;;;;;;;24.00;38.83;96674.69;4992906;28;20053;-78
2023/06/11 09:01:42;;;;;;;5.68;4.35;;;;;;;24.12;38.81;96674.44;4994425;28;20308;-78
2023/06/11 09:04:09;;;;;;;8.90;5.00;;;;;;;24.17;38.82;96672.56;4996193;28;20046;-80
2023/06/11 09:06:39;;;;;;;5.13;4.68;;;;;;;24.13;38.93;96671.50;4996239;28;20104;-80
2023/06/11 09:09:07;;;;;;;5.43;4.82;;;;;;;24.13;39.03;96679.50;4995600;28;20422;-79
2023/06/11 09:11:36;;;;;;;6.03;5.10;;;;;;;24.19;39.44;96681.09;4995897;28;20050;-78
2023/06/11 09:14:05;;;;;;;5.80;4.40;;;;;;;24.30;39.54;96679.22;4997583;28;20189;-80
2023/06/11 09:16:39;;;;;;;5.43;4.97;;;;;;;24.40;39.03;96673.91;4997292;28;20047;-79
2023/06/11 09:19:11;;;;;;;5.13;4.63;;;;;;;24.49;38.61;96681.38;4994579;28;20107;-80
2023/06/11 09:21:39;;;;;;;5.20;4.70;;;;;;;24.55;37.71;96682.97;4991959;28;20042;-78
2023/06/11 09:24:09;;;;;;;5.45;4.65;;;;;;;24.61;37.04;96676.56;4996773;28;20054;-78
2023/06/11 09:26:36;;;;;;;4.80;4.40;;;;;;;24.65;36.57;96678.41;4997137;28;20112;-79
2023/06/11 09:29:05;;;;;;;4.70;4.10;;;;;;;24.74;36.91;96699.22;4997426;28;20050;-80
2023/06/11 09:31:32;;;;;;;10.18;5.20;;;;;;;24.75;36.43;96692.78;4994975;28;20125;-79
2023/06/11 09:34:05;;;;;;;5.22;4.75;;;;;;;24.75;36.13;96687.47;4997162;28;20038;-79
2023/06/11 09:36:35;;;;;;;5.18;4.25;;;;;;;24.79;36.60;96697.31;4996675;28;20081;-80
2023/06/11 09:39:04;;;;;;;6.65;4.47;;;;;;;24.81;35.93;96681.03;4996675;28;20078;-79
2023/06/11 09:41:32;;;;;;;6.45;4.82;;;;;;;24.87;36.37;96674.63;4997115;28;20074;-79
2023/06/11 09:44:00;;;;;;;7.32;4.38;;;;;;;24.93;35.36;96670.88;4997030;28;20485;-79
2023/06/11 09:46:28;;;;;;;5.75;4.28;;;;;;;25.00;36.43;96684.72;4997115;28;20050;-81
2023/06/11 09:48:56;;;;;;;6.72;4.65;;;;;;;25.12;36.46;96681.75;4996889;28;20108;-79
2023/06/11 09:51:25;;;;;;;5.20;4.55;;;;;;;25.18;35.84;96679.84;4996263;28;20104;-79
2023/06/11 09:53:54;;;;;;;4.95;4.45;;;;;;;25.21;36.15;96682.00;4994949;28;20462;-80
2023/06/11 09:56:22;;;;;;;5.03;4.53;;;;;;;25.21;36.47;96687.34;4995200;28;20050;-80
2023/06/11 09:58:50;;;;;;;5.45;4.60;;;;;;;25.17;34.88;96680.94;4996234;28;20089;-79
2023/06/11 10:01:18;;;;;;;5.20;4.63;;;;;;;25.15;35.49;96683.88;4995907;28;20050;-79
2023/06/11 10:03:46;;;;;;;5.00;4.50;;;;;;;25.21;35.91;96674.00;4995762;28;20074;-79
2023/06/11 10:06:20;;;;;;;4.95;4.55;;;;;;;25.31;36.60;96673.16;4995660;28;20046;-80
2023/06/11 10:08:50;;;;;;;7.72;4.28;;;;;;;25.39;36.46;96676.06;4996112;28;20054;-80
2023/06/11 10:11:22;;;;;;;5.05;4.38;;;;;;;25.42;35.63;96672.81;4995873;28;20038;-79
2023/06/11 10:13:58;;;;;;;7.82;5.82;;;;;;;25.47;35.93;96672.00;4995300;28;20050;-79
2023/06/11 10:16:27;;;;;;;7.05;5.00;;;;;;;25.49;36.09;96669.84;4995591;28;20570;-80
2023/06/11 10:19:04;;;;;;;4.65;4.22;;;;;;;25.52;36.04;96680.00;4996593;28;20050;-79
2023/06/11 10:21:39;;;;;;;6.35;4.43;;;;;;;25.55;34.94;96674.09;4995725;28;20050;-79
2023/06/11 10:24:08;;;;;;;7.47;4.40;;;;;;;25.63;35.38;96676.19;4995642;28;20506;-80
2023/06/11 10:26:38;;;;;;;5.10;4.32;;;;;;;25.79;36.14;96670.75;4993398;28;20126;-80
2023/06/11 10:29:11;;;;;;;4.53;4.13;;;;;;;25.90;35.03;96673.09;4985854;28;20094;-80
2023/06/11 10:31:41;;;;;;;6.70;4.90;;;;;;;25.96;35.26;96681.09;4995148;28;20057;-78
2023/06/11 10:34:14;;;;;;;4.75;4.35;;;;;;;25.98;34.50;96682.41;4996044;28;20124;-79
2023/06/11 10:36:41;;;;;;;4.97;4.43;;;;;;;26.05;33.97;96682.09;4995809;28;20518;-79
2023/06/11 10:39:10;;;;;;;6.43;4.75;;;;;;;26.09;34.41;96683.91;4996396;28;20050;-79
2023/06/11 10:41:40;;;;;;;7.25;4.30;;;;;;;26.18;35.26;96676.09;4995543;28;20116;-80
2023/06/11 10:44:08;;;;;;;5.03;3.72;;;;;;;26.30;34.46;96676.53;4995106;28;20054;-79
2023/06/11 10:46:46;;;;;;;6.15;4.18;;;;;;;26.40;34.42;96677.53;4994709;28;20458;-79
2023/06/11 10:49:15;;;;;;;7.07;5.00;;;;;;;26.44;33.87;96671.31;4995466;28;20050;-81
2023/06/11 10:51:43;;;;;;;6.80;4.63;;;;;;;26.43;32.96;96672.38;4995214;28;20043;-79
2023/06/11 10:54:10;;;;;;;6.65;4.55;;;;;;;26.45;33.82;96672.13;4994269;28;20085;-78
2023/06/11 10:56:39;;;;;;;4.97;4.10;;;;;;;26.51;33.36;96685.16;4994289;28;20054;-80
2023/06/11 10:59:09;;;;;;;8.00;4.63;;;;;;;26.58;33.14;96684.06;4994568;28;20054;-79
2023/06/11 11:01:37;;;;;;;6.07;4.32;;;;;;;26.62;32.27;96675.19;4986980;28;20129;-79
2023/06/11 11:04:05;;;;;;;4.53;4.10;;;;;;;26.64;32.48;96678.38;4994262;28;20054;-79
2023/06/11 11:06:36;;;;;;;5.53;4.32;;;;;;;26.68;32.63;96662.56;4986738;28;20054;-79
2023/06/11 11:09:04;;;;;;;5.13;3.95;;;;;;;26.71;32.49;96668.13;4995551;28;20058;-79
2023/06/11 11:11:33;;;;;;;6.47;4.15;;;;;;;26.69;32.76;96675.63;4995732;28;20046;-79
2023/06/11 11:14:03;;;;;;;5.30;4.72;;;;;;;26.69;32.60;96661.47;4995340;28;20117;-79
2023/06/11 11:16:31;;;;;;;5.70;4.10;;;;;;;26.64;32.56;96664.22;4993926;28;20054;-80
2023/06/11 11:18:59;;;;;;;4.53;4.03;;;;;;;26.60;34.08;96663.97;4998950;28;20054;-82
2023/06/11 11:21:28;;;;;;;5.43;4.35;;;;;;;26.61;32.89;96662.91;4998394;28;20054;-82
2023/06/11 11:23:57;;;;;;;4.28;3.88;;;;;;;26.63;32.88;96660.75;4995791;28;20077;-81
2023/06/11 11:26:26;;;;;;;4.50;4.10;;;;;;;26.64;33.21;96640.94;4993924;28;20089;-84
2023/06/11 11:28:54;;;;;;;4.20;3.90;;;;;;;26.59;33.43;96656.22;4995077;28;20088;-80
2023/06/11 11:31:23;;;;;;;7.68;4.15;;;;;;;26.49;32.95;96660.56;4995816;28;20074;-76
2023/06/11 11:33:51;;;;;;;4.95;4.05;;;;;;;26.40;33.84;96664.16;4989511;28;20050;-80
2023/06/11 11:36:19;;;;;;;5.75;4.65;;;;;;;26.31;33.18;96654.06;4984942;28;20048;-79
2023/06/11 11:38:47;;;;;;;6.10;4.50;;;;;;;26.27;33.14;96653.03;4995521;28;20153;-80
2023/06/11 11:41:14;;;;;;;5.00;4.53;;;;;;;26.24;34.28;96658.16;4994480;28;20046;-80
2023/06/11 11:43:43;;;;;;;4.07;3.78;;;;;;;26.22;33.70;96649.59;4995613;28;20047;-78
2023/06/11 11:46:16;;;;;;;7.97;4.40;;;;;;;26.15;33.26;96649.94;4994937;28;20054;-78
2023/06/11 11:48:45;;;;;;;4.38;3.92;;;;;;;26.12;33.76;96660.38;4995051;28;20543;-78
2023/06/11 11:51:15;;;;;;;5.53;4.38;;;;;;;26.09;33.65;96657.19;4995110;28;20497;-79
2023/06/11 11:53:43;;;;;;;6.45;4.30;;;;;;;26.07;33.13;96648.66;4993939;28;20054;-80
2023/06/11 11:56:11;;;;;;;4.90;4.45;;;;;;;26.04;32.74;96649.22;4993370;28;20089;-79
2023/06/11 11:58:40;;;;;;;6.40;4.18;;;;;;;26.04;32.96;96649.22;4986558;28;20054;-78
2023/06/11 12:01:21;;;;;;;4.63;3.95;;;;;;;26.07;32.95;96642.50;4993950;28;20054;-78
2023/06/11 12:03:57;;;;;;;6.63;4.22;;;;;;;26.10;32.32;96633.91;4994161;28;20046;-78
2023/06/11 12:06:25;;;;;;;4.20;3.50;;;;;;;26.15;31.77;96641.91;4993374;28;20437;-78
2023/06/11 12:08:53;;;;;;;5.15;4.10;;;;;;;26.17;32.09;96633.59;4993302;28;20105;-79
2023/06/11 12:11:21;;;;;;;5.90;4.30;;;;;;;26.20;32.52;96639.19;4994333;28;20465;-79
2023/06/11 12:13:48;;;;;;;5.80;3.70;;;;;;;26.25;32.29;96623.09;4994500;28;20078;-80
2023/06/11 12:16:16;;;;;;;5.25;4.45;;;;;;;26.30;31.69;96627.59;4993997;28;20050;-78
2023/06/11 12:18:44;;;;;;;5.47;4.22;;;;;;;26.31;32.10;96624.63;4993789;28;20133;-80
2023/06/11 12:21:13;;;;;;;5.15;4.00;;;;;;;26.33;31.79;96628.91;4993710;28;20100;-78
2023/06/11 12:23:41;;;;;;;6.10;5.00;;;;;;;26.29;31.56;96621.44;4993464;28;20047;-79
2023/06/11 12:26:08;;;;;;;4.43;4.03;;;;;;;26.26;31.82;96623.88;4993154;28;20054;-80
2023/06/11 12:28:36;;;;;;;5.22;4.28;;;;;;;26.25;32.75;96628.44;4993404;28;20054;-78
2023/06/11 12:31:04;;;;;;;4.95;4.53;;;;;;;26.25;31.53;96622.31;4993199;28;20050;-79
2023/06/11 12:33:31;;;;;;;4.78;3.80;;;;;;;26.24;33.25;96623.38;4993528;28;20388;-79
2023/06/11 12:35:59;;;;;;;4.63;4.28;;;;;;;26.27;35.00;96615.59;4993133;28;20463;-80
2023/06/11 12:38:29;;;;;;;5.45;4.47;;;;;;;26.30;32.51;96622.25;4994305;28;20493;-80
2023/06/11 12:40:57;;;;;;;5.07;4.07;;;;;;;26.33;33.00;96613.66;4995264;28;20050;-81
2023/06/11 12:43:24;;;;;;;4.85;4.28;;;;;;;26.33;32.53;96618.19;4993835;28;20125;-80
2023/06/11 12:45:52;;;;;;;4.85;4.30;;;;;;;26.28;32.56;96617.19;4993464;28;20050;-81
2023/06/11 12:48:20;;;;;;;5.18;4.75;;;;;;;26.18;33.94;96619.94;4993855;28;20137;-80
2023/06/11 12:50:47;;;;;;;6.00;5.40;;;;;;;26.07;33.15;96623.81;4993978;28;20062;-80
2023/06/11 12:53:15;;;;;;;5.55;4.97;;;;;;;26.02;33.63;96613.13;4993420;28;20050;-79
2023/06/11 12:55:44;;;;;;;5.25;4.15;;;;;;;25.98;34.46;96612.13;4996598;28;20050;-80
2023/06/11 12:58:12;;;;;;;6.20;4.13;;;;;;;25.97;33.04;96605.97;5004521;28;20081;-81
2023/06/11 13:00:39;;;;;;;4.53;4.13;;;;;;;26.00;32.94;96599.25;5000429;28;20050;-81
2023/06/11 13:03:07;;;;;;;5.63;4.35;;;;;;;26.05;33.18;96612.59;4998115;28;20779;-80
2023/06/11 13:05:35;;;;;;;5.00;4.07;;;;;;;26.07;32.89;96607.75;4996930;28;20502;-80
2023/06/11 13:08:02;;;;;;;6.57;4.22;;;;;;;26.05;32.93;96605.38;4995152;28;20043;-80
2023/06/11 13:10:30;;;;;;;5.95;3.97;;;;;;;26.04;31.40;96610.97;4994409;28;20105;-80
2023/06/11 13:12:59;;;;;;;4.78;4.15;;;;;;;26.02;31.14;96599.78;4994104;28;20548;-81
2023/06/11 13:15:27;;;;;;;3.97;3.55;;;;;;;26.03;31.52;96596.81;4992765;28;20047;-78
2023/06/11 13:17:56;;;;;;;10.15;3.95;;;;;;;26.07;31.74;96599.75;4993524;28;20047;-80
2023/06/11 13:20:23;;;;;;;4.28;3.80;;;;;;;26.10;31.76;96589.25;4993746;28;20050;-80
2023/06/11 13:22:51;;;;;;;5.15;4.68;;;;;;;26.15;31.57;96591.13;4993925;28;20085;-81
2023/06/11 13:25:19;;;;;;;4.15;3.75;;;;;;;26.20;31.18;96588.38;4994311;28;20506;-81
2023/06/11 13:27:46;;;;;;;4.82;3.70;;;;;;;26.22;31.55;96580.88;4982585;28;20078;-79
2023/06/11 13:30:16;;;;;;;4.35;4.00;;;;;;;26.24;31.82;96583.28;4992320;28;20050;-80
2023/06/11 13:32:44;;;;;;;4.40;3.80;;;;;;;26.23;31.88;96582.47;4981911;28;20577;-80
2023/06/11 13:35:11;;;;;;;5.13;4.38;;;;;;;26.25;31.66;96582.97;4989512;28;20463;-81
2023/06/11 13:37:39;;;;;;;5.38;4.47;;;;;;;26.28;31.62;96589.63;4990582;28;20524;-80
2023/06/11 13:40:08;;;;;;;7.82;4.20;;;;;;;26.24;32.42;96584.06;4992133;28;20137;-78
2023/06/11 13:42:36;;;;;;;4.88;4.43;;;;;;;26.21;33.95;96579.28;4992896;28;20343;-79
2023/06/11 13:45:04;;;;;;;4.90;4.50;;;;;;;26.20;32.75;96569.66;4994316;28;20082;-79
2023/06/11 13:47:33;;;;;;;4.13;3.83;;;;;;;26.22;36.76;96570.19;4980687;28;20058;-80
2023/06/11 13:50:01;;;;;;;5.97;4.40;;;;;;;26.24;34.91;96569.91;4998419;28;20050;-80
2023/06/11 13:52:29;;;;;;;5.00;4.43;;;;;;;26.25;33.88;96572.28;4997124;28;20050;-80
2023/06/11 13:54:56;;;;;;;6.30;4.65;;;;;;;26.26;32.95;96570.41;4997912;28;20046;-79
2023/06/11 13:57:27;;;;;;;4.75;4.13;;;;;;;26.25;35.17;96580.31;4996093;28;20054;-79
2023/06/11 13:59:55;;;;;;;5.45;4.30;;;;;;;26.26;33.95;96573.91;4996999;28;20134;-82
2023/06/11 14:02:23;;;;;;;5.30;4.57;;;;;;;26.25;31.96;96566.94;4996854;28;20092;-80
2023/06/11 14:04:53;;;;;;;5.82;4.40;;;;;;;26.25;33.67;96569.63;4997148;28;20125;-81
2023/06/11 14:07:21;;;;;;;5.10;3.72;;;;;;;26.27;32.21;96572.81;4996583;28;20457;-80